首页
METAR-TAF:

METAR-TAF

机场 :

麦迪逊, 威斯康辛州, 美国

纬度: 43-08-26N, 经度: 089-20-43W, 海拔: 262米

当前天气观测

该预报发布于36分钟前的23:53 UTC
风速10节,风向,有时为18节阵风
温度 2°C
湿度 75%
气压 1020 hPa
能見度: 16.1公里
多云层高于25000英尺

METAR: KMSN 072353Z 19010G18KT 10SM BKN250 02/M02 A3012 RMK AO2 SLP211 T00171022 10033 20017 57012

时间: 18:29 (00:29 UTC)

预报

该预报发布于59分钟前的23:30 UTC
预报有效从08日的 00点(UTC)到 08日的 24点(UTC)
风速11节,风向,有时为18节阵风
能見度: 10公里
多云层高于20000英尺
从 08日的 0200点(UTC)
风速13节,风向,有时为21节阵风
能見度: 10公里
多云层高于20000英尺
从 08日的 1100点(UTC)
风速14节,风向南转西南
能見度: 10公里
多云层高于20000英尺
从 08日的 1400点(UTC)
风速13节,风向南转西南
能見度: 10公里
多云层高于12000英尺
从 08日的 1500点(UTC)
风速13节,风向西南,有时为21节阵风
能見度: 10公里
多云层高于5000英尺
从 08日的 2100点(UTC)
风速11节,风向西南
能見度: 10公里
多云层高于2500英尺

TAF: KMSN 072330Z 0800/0824 19011G18KT P6SM BKN200 WS020/23040KT FM080200 19013G21KT P6SM BKN200 WS015/21045KT FM081100 21014KT P6SM BKN200 WS020/23045KT FM081400 21013KT P6SM BKN120 FM081500 22013G21KT P6SM BKN050 FM082100 22011KT P6SM BKN025

超过4000个机场的气象观测和天气预报(METAR&TAF报告)。

可查询的气象台以黄色和红色小点在地图上表示。

将鼠标移到小点上方,可查看气象台名称。

然后点击查看天气观测和预报。

如需切换地图:点击带黑十字的绿色按钮放大地图;点击带横线的绿色按钮缩小地图;或者点击绿色箭头查看邻近地区的地图。


METAR-TAF: